Terminal Aerodrome Forecast
Issued by NWS

Current Version | Previous Version | Text Only | Print | Product List | Glossary On
Versions: 1 2 3 4 5 6 7 8 9 10 11 12 13 14 15 16 17 18 19
000
FTUS41 KPBZ 020521
TAFBVI
TAF
KBVI 020521Z 0206/0306 VRB04KT P6SM VCSH OVC010
     FM020900 VRB03KT 2SM -SHRA BR OVC006
     FM021100 24005KT P6SM BKN006
     FM021500 27012KT P6SM BKN015
     FM021700 29012KT P6SM BKN025
     FM021900 33008KT P6SM BKN035
      AMD NOT SKED=

USA.gov is the U.S. government's official web portal to all federal, state and local government web resources and services.